sensor_id;sensor_type;location;lat;lon;timestamp;noise_LAeq;noise_LA_min;noise_LA_max;noise_LA01;noise_LA95
66463;Laerm;56827;52.178;4.500;2022-09-11T00:00:02;29.88;28.44;32.98;;
66463;Laerm;56827;52.178;4.500;2022-09-11T00:00:13;39.48;29.10;59.25;;
66463;Laerm;56827;52.178;4.500;2022-09-11T00:00:23;48.03;28.87;60.60;;
66463;Laerm;56827;52.178;4.500;2022-09-11T00:00:33;30.21;28.60;33.08;;
66463;Laerm;56827;52.178;4.500;2022-09-11T00:00:44;31.22;29.31;39.97;;
66463;Laerm;56827;52.178;4.500;2022-09-11T00:00:55;32.56;29.39;40.92;;
66463;Laerm;56827;52.178;4.500;2022-09-11T00:01:06;32.13;30.04;34.26;;
66463;Laerm;56827;52.178;4.500;2022-09-11T00:01:16;31.74;29.78;38.88;;
66463;Laerm;56827;52.178;4.500;2022-09-11T00:01:27;31.06;29.39;35.19;;
66463;Laerm;56827;52.178;4.500;2022-09-11T00:01:38;33.53;30.50;41.51;;
66463;Laerm;56827;52.178;4.500;2022-09-11T00:01:49;40.04;30.86;52.67;;
66463;Laerm;56827;52.178;4.500;2022-09-11T00:01:59;32.19;29.17;38.23;;
66463;Laerm;56827;52.178;4.500;2022-09-11T00:02:10;30.47;28.63;32.56;;
66463;Laerm;56827;52.178;4.500;2022-09-11T00:02:20;30.85;29.17;32.85;;
66463;Laerm;56827;52.178;4.500;2022-09-11T00:02:31;31.08;29.38;32.68;;
66463;Laerm;56827;52.178;4.500;2022-09-11T00:02:41;30.27;28.48;36.72;;
66463;Laerm;56827;52.178;4.500;2022-09-11T00:02:51;29.96;28.60;32.13;;
66463;Laerm;56827;52.178;4.500;2022-09-11T00:03:02;31.43;29.32;34.12;;
66463;Laerm;56827;52.178;4.500;2022-09-11T00:03:12;31.49;29.77;33.86;;
66463;Laerm;56827;52.178;4.500;2022-09-11T00:03:22;31.78;29.77;35.33;;
66463;Laerm;56827;52.178;4.500;2022-09-11T00:03:34;30.54;29.18;33.65;;
66463;Laerm;56827;52.178;4.500;2022-09-11T00:03:45;29.97;28.42;32.68;;
66463;Laerm;56827;52.178;4.500;2022-09-11T00:03:56;29.49;28.24;34.10;;
66463;Laerm;56827;52.178;4.500;2022-09-11T00:04:06;30.28;28.35;35.41;;
66463;Laerm;56827;52.178;4.500;2022-09-11T00:04:16;31.65;28.66;35.83;;
66463;Laerm;56827;52.178;4.500;2022-09-11T00:04:27;32.92;28.55;42.79;;
66463;Laerm;56827;52.178;4.500;2022-09-11T00:04:37;30.20;28.67;32.25;;
66463;Laerm;56827;52.178;4.500;2022-09-11T00:04:47;32.30;28.56;42.87;;
66463;Laerm;56827;52.178;4.500;2022-09-11T00:04:58;29.85;28.60;31.57;;
66463;Laerm;56827;52.178;4.500;2022-09-11T00:05:08;30.78;29.19;41.05;;
66463;Laerm;56827;52.178;4.500;2022-09-11T00:05:19;30.53;29.32;33.43;;
66463;Laerm;56827;52.178;4.500;2022-09-11T00:05:29;29.89;28.65;31.46;;
66463;Laerm;56827;52.178;4.500;2022-09-11T00:05:40;29.86;28.67;31.78;;
66463;Laerm;56827;52.178;4.500;2022-09-11T00:05:50;29.60;28.42;31.77;;
66463;Laerm;56827;52.178;4.500;2022-09-11T00:06:08;29.80;28.36;33.00;;
66463;Laerm;56827;52.178;4.500;2022-09-11T00:06:19;29.92;28.52;32.58;;
66463;Laerm;56827;52.178;4.500;2022-09-11T00:06:29;29.87;28.65;31.76;;
66463;Laerm;56827;52.178;4.500;2022-09-11T00:06:40;30.50;29.06;32.45;;
66463;Laerm;56827;52.178;4.500;2022-09-11T00:06:50;30.34;28.75;31.99;;
66463;Laerm;56827;52.178;4.500;2022-09-11T00:07:00;30.28;28.97;32.57;;
66463;Laerm;56827;52.178;4.500;2022-09-11T00:07:10;30.38;28.62;34.45;;
66463;Laerm;56827;52.178;4.500;2022-09-11T00:07:20;32.93;29.44;42.35;;
66463;Laerm;56827;52.178;4.500;2022-09-11T00:07:31;32.72;30.04;40.73;;
66463;Laerm;56827;52.178;4.500;2022-09-11T00:07:41;36.31;30.62;40.96;;
66463;Laerm;56827;52.178;4.500;2022-09-11T00:07:51;44.37;37.93;51.21;;
66463;Laerm;56827;52.178;4.500;2022-09-11T00:08:01;45.31;38.72;51.59;;
66463;Laerm;56827;52.178;4.500;2022-09-11T00:08:13;42.35;36.19;45.84;;
66463;Laerm;56827;52.178;4.500;2022-09-11T00:08:25;41.39;36.07;46.03;;
66463;Laerm;56827;52.178;4.500;2022-09-11T00:08:37;35.75;31.71;41.30;;
66463;Laerm;56827;52.178;4.500;2022-09-11T00:08:50;33.96;31.48;37.50;;
66463;Laerm;56827;52.178;4.500;2022-09-11T00:09:02;33.06;30.29;35.93;;
66463;Laerm;56827;52.178;4.500;2022-09-11T00:09:13;32.78;29.47;36.12;;
66463;Laerm;56827;52.178;4.500;2022-09-11T00:09:23;31.48;28.76;38.40;;
66463;Laerm;56827;52.178;4.500;2022-09-11T00:09:33;41.00;30.94;46.39;;
66463;Laerm;56827;52.178;4.500;2022-09-11T00:09:45;33.60;29.08;39.90;;
66463;Laerm;56827;52.178;4.500;2022-09-11T00:09:56;30.75;29.12;33.98;;
66463;Laerm;56827;52.178;4.500;2022-09-11T00:10:06;30.28;28.89;33.12;;
66463;Laerm;56827;52.178;4.500;2022-09-11T00:10:16;32.27;29.09;39.91;;
66463;Laerm;56827;52.178;4.500;2022-09-11T00:10:27;31.64;29.46;36.14;;
66463;Laerm;56827;52.178;4.500;2022-09-11T00:10:38;31.03;29.66;33.80;;
66463;Laerm;56827;52.178;4.500;2022-09-11T00:10:52;31.69;29.44;44.09;;
66463;Laerm;56827;52.178;4.500;2022-09-11T00:11:12;31.23;29.16;33.20;;
66463;Laerm;56827;52.178;4.500;2022-09-11T00:11:30;31.44;28.95;36.31;;
66463;Laerm;56827;52.178;4.500;2022-09-11T00:11:41;31.11;29.51;34.91;;
66463;Laerm;56827;52.178;4.500;2022-09-11T00:11:51;31.70;29.07;40.70;;
66463;Laerm;56827;52.178;4.500;2022-09-11T00:12:02;33.31;30.35;39.52;;
66463;Laerm;56827;52.178;4.500;2022-09-11T00:12:12;32.44;29.32;45.40;;
66463;Laerm;56827;52.178;4.500;2022-09-11T00:12:22;30.68;29.05;34.43;;
66463;Laerm;56827;52.178;4.500;2022-09-11T00:12:32;36.32;29.06;48.49;;
66463;Laerm;56827;52.178;4.500;2022-09-11T00:12:43;36.07;28.88;49.59;;
66463;Laerm;56827;52.178;4.500;2022-09-11T00:12:53;30.22;28.91;32.85;;
66463;Laerm;56827;52.178;4.500;2022-09-11T00:13:03;30.51;28.75;33.97;;
66463;Laerm;56827;52.178;4.500;2022-09-11T00:13:20;30.60;28.86;34.08;;
66463;Laerm;56827;52.178;4.500;2022-09-11T00:13:31;30.49;29.00;33.29;;
66463;Laerm;56827;52.178;4.500;2022-09-11T00:13:42;30.88;28.97;34.69;;
66463;Laerm;56827;52.178;4.500;2022-09-11T00:13:53;31.34;29.43;42.08;;
66463;Laerm;56827;52.178;4.500;2022-09-11T00:14:03;31.35;29.48;35.27;;
66463;Laerm;56827;52.178;4.500;2022-09-11T00:14:13;30.78;28.89;34.23;;
66463;Laerm;56827;52.178;4.500;2022-09-11T00:14:24;30.92;29.54;32.90;;
66463;Laerm;56827;52.178;4.500;2022-09-11T00:14:37;31.62;29.05;34.55;;
66463;Laerm;56827;52.178;4.500;2022-09-11T00:14:48;30.51;28.71;35.64;;
66463;Laerm;56827;52.178;4.500;2022-09-11T00:14:58;30.58;29.17;32.72;;
66463;Laerm;56827;52.178;4.500;2022-09-11T00:15:09;30.46;29.04;32.51;;
66463;Laerm;56827;52.178;4.500;2022-09-11T00:15:20;30.58;29.00;34.16;;
66463;Laerm;56827;52.178;4.500;2022-09-11T00:15:30;31.17;28.95;40.89;;
66463;Laerm;56827;52.178;4.500;2022-09-11T00:15:44;30.57;28.66;39.28;;
66463;Laerm;56827;52.178;4.500;2022-09-11T00:15:54;30.53;28.65;33.09;;
66463;Laerm;56827;52.178;4.500;2022-09-11T00:16:05;30.57;28.80;33.18;;
66463;Laerm;56827;52.178;4.500;2022-09-11T00:16:17;30.87;28.94;34.62;;
66463;Laerm;56827;52.178;4.500;2022-09-11T00:16:39;31.93;29.71;34.49;;
66463;Laerm;56827;52.178;4.500;2022-09-11T00:16:50;33.00;30.22;35.50;;
66463;Laerm;56827;52.178;4.500;2022-09-11T00:17:00;34.36;31.94;37.46;;
66463;Laerm;56827;52.178;4.500;2022-09-11T00:17:10;38.01;33.81;41.48;;
66463;Laerm;56827;52.178;4.500;2022-09-11T00:17:21;42.24;37.44;45.94;;
66463;Laerm;56827;52.178;4.500;2022-09-11T00:17:32;41.86;38.39;46.20;;
66463;Laerm;56827;52.178;4.500;2022-09-11T00:17:42;42.17;37.77;45.46;;
66463;Laerm;56827;52.178;4.500;2022-09-11T00:17:52;39.56;34.84;43.75;;
66463;Laerm;56827;52.178;4.500;2022-09-11T00:18:04;37.62;32.97;44.56;;
66463;Laerm;56827;52.178;4.500;2022-09-11T00:18:16;39.06;33.52;48.25;;
66463;Laerm;56827;52.178;4.500;2022-09-11T00:18:26;39.64;34.15;47.84;;
66463;Laerm;56827;52.178;4.500;2022-09-11T00:18:38;36.31;31.90;43.20;;
66463;Laerm;56827;52.178;4.500;2022-09-11T00:18:48;35.43;31.36;40.82;;
66463;Laerm;56827;52.178;4.500;2022-09-11T00:19:00;34.67;31.03;41.01;;
66463;Laerm;56827;52.178;4.500;2022-09-11T00:19:11;34.95;30.05;42.23;;
66463;Laerm;56827;52.178;4.500;2022-09-11T00:19:22;33.74;30.61;39.72;;
66463;Laerm;56827;52.178;4.500;2022-09-11T00:19:33;32.44;29.48;36.22;;
66463;Laerm;56827;52.178;4.500;2022-09-11T00:19:44;31.60;29.59;34.86;;
66463;Laerm;56827;52.178;4.500;2022-09-11T00:19:54;32.12;30.27;35.23;;
66463;Laerm;56827;52.178;4.500;2022-09-11T00:20:05;33.62;29.69;41.58;;
66463;Laerm;56827;52.178;4.500;2022-09-11T00:20:15;34.88;29.34;42.70;;
66463;Laerm;56827;52.178;4.500;2022-09-11T00:20:25;30.31;28.77;33.24;;
66463;Laerm;56827;52.178;4.500;2022-09-11T00:20:36;30.45;29.12;32.82;;
66463;Laerm;56827;52.178;4.500;2022-09-11T00:20:47;30.34;29.00;32.14;;
66463;Laerm;56827;52.178;4.500;2022-09-11T00:20:58;31.10;28.89;38.62;;
66463;Laerm;56827;52.178;4.500;2022-09-11T00:21:09;30.28;29.05;33.64;;
66463;Laerm;56827;52.178;4.500;2022-09-11T00:21:19;30.34;28.80;34.83;;
66463;Laerm;56827;52.178;4.500;2022-09-11T00:21:30;31.08;29.14;33.22;;
66463;Laerm;56827;52.178;4.500;2022-09-11T00:21:40;30.72;29.09;39.87;;
66463;Laerm;56827;52.178;4.500;2022-09-11T00:21:50;30.00;28.74;33.07;;
66463;Laerm;56827;52.178;4.500;2022-09-11T00:22:00;30.21;28.75;35.87;;
66463;Laerm;56827;52.178;4.500;2022-09-11T00:22:11;32.66;28.16;48.22;;
66463;Laerm;56827;52.178;4.500;2022-09-11T00:22:21;31.01;28.90;33.32;;
66463;Laerm;56827;52.178;4.500;2022-09-11T00:22:31;30.77;28.88;38.58;;
66463;Laerm;56827;52.178;4.500;2022-09-11T00:22:41;30.23;28.74;38.35;;
66463;Laerm;56827;52.178;4.500;2022-09-11T00:22:51;29.90;28.37;35.16;;
66463;Laerm;56827;52.178;4.500;2022-09-11T00:23:02;29.77;28.19;32.10;;
66463;Laerm;56827;52.178;4.500;2022-09-11T00:23:15;30.14;28.35;36.26;;
66463;Laerm;56827;52.178;4.500;2022-09-11T00:23:26;30.20;28.59;33.74;;
66463;Laerm;56827;52.178;4.500;2022-09-11T00:23:37;30.91;29.28;34.45;;
66463;Laerm;56827;52.178;4.500;2022-09-11T00:23:47;35.17;30.68;44.75;;
66463;Laerm;56827;52.178;4.500;2022-09-11T00:24:00;31.13;29.30;34.26;;
66463;Laerm;56827;52.178;4.500;2022-09-11T00:24:11;30.53;29.16;34.05;;
66463;Laerm;56827;52.178;4.500;2022-09-11T00:24:21;30.24;28.49;35.10;;
66463;Laerm;56827;52.178;4.500;2022-09-11T00:24:32;30.31;28.69;33.21;;
66463;Laerm;56827;52.178;4.500;2022-09-11T00:24:42;30.44;28.71;32.97;;
66463;Laerm;56827;52.178;4.500;2022-09-11T00:24:52;30.04;28.69;32.59;;
66463;Laerm;56827;52.178;4.500;2022-09-11T00:25:02;30.11;28.50;34.67;;
66463;Laerm;56827;52.178;4.500;2022-09-11T00:25:12;30.04;28.18;32.45;;
66463;Laerm;56827;52.178;4.500;2022-09-11T00:25:23;30.15;28.73;33.24;;
66463;Laerm;56827;52.178;4.500;2022-09-11T00:25:36;30.37;28.80;32.98;;
66463;Laerm;56827;52.178;4.500;2022-09-11T00:25:49;30.31;28.73;40.35;;
66463;Laerm;56827;52.178;4.500;2022-09-11T00:26:03;30.18;28.64;34.90;;
66463;Laerm;56827;52.178;4.500;2022-09-11T00:26:13;30.07;27.91;34.54;;
66463;Laerm;56827;52.178;4.500;2022-09-11T00:26:23;30.34;28.93;32.72;;
66463;Laerm;56827;52.178;4.500;2022-09-11T00:26:34;30.87;29.30;35.46;;
66463;Laerm;56827;52.178;4.500;2022-09-11T00:26:44;31.08;29.50;33.35;;
66463;Laerm;56827;52.178;4.500;2022-09-11T00:26:56;41.01;30.21;47.69;;
66463;Laerm;56827;52.178;4.500;2022-09-11T00:27:06;33.65;29.49;41.73;;
66463;Laerm;56827;52.178;4.500;2022-09-11T00:27:17;30.67;28.99;34.41;;
66463;Laerm;56827;52.178;4.500;2022-09-11T00:27:27;30.91;29.29;33.98;;
66463;Laerm;56827;52.178;4.500;2022-09-11T00:27:37;30.27;28.69;34.83;;
66463;Laerm;56827;52.178;4.500;2022-09-11T00:27:47;30.35;28.66;36.20;;
66463;Laerm;56827;52.178;4.500;2022-09-11T00:28:00;30.53;28.79;33.60;;
66463;Laerm;56827;52.178;4.500;2022-09-11T00:28:15;30.04;28.54;34.30;;
66463;Laerm;56827;52.178;4.500;2022-09-11T00:28:25;30.06;28.31;33.10;;
66463;Laerm;56827;52.178;4.500;2022-09-11T00:28:35;29.96;28.38;33.04;;
66463;Laerm;56827;52.178;4.500;2022-09-11T00:28:46;30.03;28.42;32.33;;
66463;Laerm;56827;52.178;4.500;2022-09-11T00:28:56;33.04;28.70;44.82;;
66463;Laerm;56827;52.178;4.500;2022-09-11T00:29:07;29.96;28.35;38.07;;
66463;Laerm;56827;52.178;4.500;2022-09-11T00:29:17;29.94;28.40;33.33;;
66463;Laerm;56827;52.178;4.500;2022-09-11T00:29:28;30.05;28.43;33.63;;
66463;Laerm;56827;52.178;4.500;2022-09-11T00:29:38;29.91;28.69;32.95;;
66463;Laerm;56827;52.178;4.500;2022-09-11T00:29:49;30.41;28.68;38.83;;
66463;Laerm;56827;52.178;4.500;2022-09-11T00:29:59;31.00;28.92;42.58;;
66463;Laerm;56827;52.178;4.500;2022-09-11T00:30:10;30.09;28.55;34.54;;
66463;Laerm;56827;52.178;4.500;2022-09-11T00:30:21;29.89;27.85;35.01;;
66463;Laerm;56827;52.178;4.500;2022-09-11T00:30:31;30.12;28.22;34.27;;
66463;Laerm;56827;52.178;4.500;2022-09-11T00:30:42;29.96;28.20;33.01;;
66463;Laerm;56827;52.178;4.500;2022-09-11T00:31:09;31.38;28.88;36.84;;
66463;Laerm;56827;52.178;4.500;2022-09-11T00:31:22;30.31;28.06;32.85;;
66463;Laerm;56827;52.178;4.500;2022-09-11T00:31:32;29.85;28.12;34.60;;
66463;Laerm;56827;52.178;4.500;2022-09-11T00:31:43;29.96;28.56;31.90;;
66463;Laerm;56827;52.178;4.500;2022-09-11T00:31:53;30.11;28.56;42.81;;
66463;Laerm;56827;52.178;4.500;2022-09-11T00:32:03;29.83;28.52;34.11;;
66463;Laerm;56827;52.178;4.500;2022-09-11T00:32:14;30.30;28.89;32.00;;
66463;Laerm;56827;52.178;4.500;2022-09-11T00:32:24;36.83;29.17;54.39;;
66463;Laerm;56827;52.178;4.500;2022-09-11T00:32:35;46.76;29.64;59.16;;
66463;Laerm;56827;52.178;4.500;2022-09-11T00:32:45;30.36;28.81;31.90;;
66463;Laerm;56827;52.178;4.500;2022-09-11T00:32:55;31.12;29.41;33.23;;
66463;Laerm;56827;52.178;4.500;2022-09-11T00:33:05;30.63;29.30;32.77;;
66463;Laerm;56827;52.178;4.500;2022-09-11T00:33:16;29.95;28.62;31.75;;
66463;Laerm;56827;52.178;4.500;2022-09-11T00:33:26;29.67;28.34;31.50;;
66463;Laerm;56827;52.178;4.500;2022-09-11T00:33:37;29.83;28.45;32.97;;
66463;Laerm;56827;52.178;4.500;2022-09-11T00:33:47;29.80;28.40;32.11;;
66463;Laerm;56827;52.178;4.500;2022-09-11T00:33:58;29.81;28.50;33.02;;
66463;Laerm;56827;52.178;4.500;2022-09-11T00:34:08;29.79;28.47;33.39;;
66463;Laerm;56827;52.178;4.500;2022-09-11T00:34:18;29.94;28.43;32.84;;
66463;Laerm;56827;52.178;4.500;2022-09-11T00:34:29;30.43;28.88;33.09;;
66463;Laerm;56827;52.178;4.500;2022-09-11T00:34:39;30.48;28.77;36.11;;
66463;Laerm;56827;52.178;4.500;2022-09-11T00:34:50;31.55;29.27;39.63;;
66463;Laerm;56827;52.178;4.500;2022-09-11T00:35:00;31.96;28.69;40.95;;
66463;Laerm;56827;52.178;4.500;2022-09-11T00:35:10;31.21;28.72;39.44;;
66463;Laerm;56827;52.178;4.500;2022-09-11T00:35:21;30.02;28.86;32.70;;
66463;Laerm;56827;52.178;4.500;2022-09-11T00:35:32;31.18;28.83;33.96;;
66463;Laerm;56827;52.178;4.500;2022-09-11T00:35:42;37.76;31.15;46.41;;
66463;Laerm;56827;52.178;4.500;2022-09-11T00:35:55;46.35;39.85;52.44;;
66463;Laerm;56827;52.178;4.500;2022-09-11T00:36:09;52.90;40.32;60.65;;
66463;Laerm;56827;52.178;4.500;2022-09-11T00:36:21;57.95;50.64;65.62;;
66463;Laerm;56827;52.178;4.500;2022-09-11T00:36:32;57.06;50.22;62.79;;
66463;Laerm;56827;52.178;4.500;2022-09-11T00:36:44;49.74;42.14;56.41;;
66463;Laerm;56827;52.178;4.500;2022-09-11T00:36:55;43.52;38.35;47.62;;
66463;Laerm;56827;52.178;4.500;2022-09-11T00:37:07;40.35;35.47;43.69;;
66463;Laerm;56827;52.178;4.500;2022-09-11T00:37:18;38.73;32.85;44.86;;
66463;Laerm;56827;52.178;4.500;2022-09-11T00:37:28;36.09;30.86;43.86;;
66463;Laerm;56827;52.178;4.500;2022-09-11T00:37:38;37.50;32.13;48.86;;
66463;Laerm;56827;52.178;4.500;2022-09-11T00:37:49;34.41;31.04;41.92;;
66463;Laerm;56827;52.178;4.500;2022-09-11T00:37:59;33.50;29.79;37.87;;
66463;Laerm;56827;52.178;4.500;2022-09-11T00:38:09;31.28;29.39;34.87;;
66463;Laerm;56827;52.178;4.500;2022-09-11T00:38:20;32.02;29.39;35.42;;
66463;Laerm;56827;52.178;4.500;2022-09-11T00:38:31;30.39;28.54;33.34;;
66463;Laerm;56827;52.178;4.500;2022-09-11T00:38:42;30.84;29.15;33.27;;
66463;Laerm;56827;52.178;4.500;2022-09-11T00:38:52;30.34;28.90;36.04;;
66463;Laerm;56827;52.178;4.500;2022-09-11T00:39:03;31.28;29.05;37.92;;
66463;Laerm;56827;52.178;4.500;2022-09-11T00:39:13;30.44;28.77;32.80;;
66463;Laerm;56827;52.178;4.500;2022-09-11T00:39:23;30.34;29.00;31.57;;
66463;Laerm;56827;52.178;4.500;2022-09-11T00:39:34;31.02;29.44;34.76;;
66463;Laerm;56827;52.178;4.500;2022-09-11T00:39:44;30.14;28.81;32.06;;
66463;Laerm;56827;52.178;4.500;2022-09-11T00:39:55;30.00;28.59;32.37;;
66463;Laerm;56827;52.178;4.500;2022-09-11T00:40:05;29.77;28.67;31.46;;
66463;Laerm;56827;52.178;4.500;2022-09-11T00:40:16;30.43;28.74;32.76;;
66463;Laerm;56827;52.178;4.500;2022-09-11T00:40:27;31.15;29.13;33.72;;
66463;Laerm;56827;52.178;4.500;2022-09-11T00:40:44;32.85;29.69;37.39;;
66463;Laerm;56827;52.178;4.500;2022-09-11T00:40:56;50.89;35.83;58.38;;
66463;Laerm;56827;52.178;4.500;2022-09-11T00:41:14;35.42;31.36;40.76;;
66463;Laerm;56827;52.178;4.500;2022-09-11T00:41:27;31.01;28.97;34.48;;
66463;Laerm;56827;52.178;4.500;2022-09-11T00:41:39;30.07;28.47;31.41;;
66463;Laerm;56827;52.178;4.500;2022-09-11T00:41:49;30.18;28.66;32.56;;
66463;Laerm;56827;52.178;4.500;2022-09-11T00:42:00;32.65;30.52;34.90;;
66463;Laerm;56827;52.178;4.500;2022-09-11T00:42:11;35.30;31.30;38.57;;
66463;Laerm;56827;52.178;4.500;2022-09-11T00:42:21;33.48;31.03;36.61;;
66463;Laerm;56827;52.178;4.500;2022-09-11T00:42:31;34.73;31.00;40.39;;
66463;Laerm;56827;52.178;4.500;2022-09-11T00:42:41;32.95;29.94;38.86;;
66463;Laerm;56827;52.178;4.500;2022-09-11T00:42:52;32.79;29.97;38.72;;
66463;Laerm;56827;52.178;4.500;2022-09-11T00:43:07;33.06;29.64;37.89;;
66463;Laerm;56827;52.178;4.500;2022-09-11T00:43:18;30.23;28.73;33.04;;
66463;Laerm;56827;52.178;4.500;2022-09-11T00:43:29;29.57;28.46;32.23;;
66463;Laerm;56827;52.178;4.500;2022-09-11T00:44:02;29.72;28.20;34.32;;
66463;Laerm;56827;52.178;4.500;2022-09-11T00:44:58;29.95;28.49;36.58;;
66463;Laerm;56827;52.178;4.500;2022-09-11T00:45:19;30.15;28.29;38.40;;
66463;Laerm;56827;52.178;4.500;2022-09-11T00:45:30;31.41;28.12;44.12;;
66463;Laerm;56827;52.178;4.500;2022-09-11T00:45:41;36.18;28.58;51.08;;
66463;Laerm;56827;52.178;4.500;2022-09-11T00:45:59;31.44;28.27;44.90;;
66463;Laerm;56827;52.178;4.500;2022-09-11T00:46:10;30.30;27.82;44.28;;
66463;Laerm;56827;52.178;4.500;2022-09-11T00:46:21;30.25;28.08;35.87;;
66463;Laerm;56827;52.178;4.500;2022-09-11T00:46:50;31.31;28.88;43.97;;
66463;Laerm;56827;52.178;4.500;2022-09-11T00:47:04;32.09;28.75;36.81;;
66463;Laerm;56827;52.178;4.500;2022-09-11T00:47:15;31.50;28.96;35.15;;
66463;Laerm;56827;52.178;4.500;2022-09-11T00:47:27;30.44;28.69;35.99;;
66463;Laerm;56827;52.178;4.500;2022-09-11T00:47:38;30.04;28.41;31.97;;
66463;Laerm;56827;52.178;4.500;2022-09-11T00:47:49;30.17;28.41;32.39;;
66463;Laerm;56827;52.178;4.500;2022-09-11T00:48:00;29.98;28.78;34.03;;
66463;Laerm;56827;52.178;4.500;2022-09-11T00:48:13;30.16;28.81;32.88;;
66463;Laerm;56827;52.178;4.500;2022-09-11T00:48:28;30.16;28.60;34.43;;
66463;Laerm;56827;52.178;4.500;2022-09-11T00:48:39;30.21;29.04;34.40;;
66463;Laerm;56827;52.178;4.500;2022-09-11T00:48:49;30.43;28.77;33.87;;
66463;Laerm;56827;52.178;4.500;2022-09-11T00:49:01;30.38;28.66;33.57;;
66463;Laerm;56827;52.178;4.500;2022-09-11T00:49:37;30.43;28.94;33.30;;
66463;Laerm;56827;52.178;4.500;2022-09-11T00:49:51;30.06;28.51;32.94;;
66463;Laerm;56827;52.178;4.500;2022-09-11T00:50:11;30.55;28.50;35.89;;
66463;Laerm;56827;52.178;4.500;2022-09-11T00:50:23;30.25;28.66;34.35;;
66463;Laerm;56827;52.178;4.500;2022-09-11T00:50:34;30.22;28.71;32.62;;
66463;Laerm;56827;52.178;4.500;2022-09-11T00:50:44;29.90;28.39;32.01;;
66463;Laerm;56827;52.178;4.500;2022-09-11T00:50:55;30.19;28.97;33.29;;
66463;Laerm;56827;52.178;4.500;2022-09-11T00:51:06;30.57;29.29;32.71;;
66463;Laerm;56827;52.178;4.500;2022-09-11T00:51:21;30.26;28.73;33.95;;
66463;Laerm;56827;52.178;4.500;2022-09-11T00:51:33;30.17;28.54;33.72;;
66463;Laerm;56827;52.178;4.500;2022-09-11T00:51:46;30.18;28.75;33.26;;
66463;Laerm;56827;52.178;4.500;2022-09-11T00:52:16;29.97;28.65;33.99;;
66463;Laerm;56827;52.178;4.500;2022-09-11T00:52:38;30.19;28.89;31.78;;
66463;Laerm;56827;52.178;4.500;2022-09-11T00:52:57;30.67;29.08;33.58;;
66463;Laerm;56827;52.178;4.500;2022-09-11T00:53:09;30.38;28.59;34.46;;
66463;Laerm;56827;52.178;4.500;2022-09-11T00:53:23;30.44;28.64;32.83;;
66463;Laerm;56827;52.178;4.500;2022-09-11T00:53:34;30.68;28.91;33.83;;
66463;Laerm;56827;52.178;4.500;2022-09-11T00:53:45;30.21;28.77;33.24;;
66463;Laerm;56827;52.178;4.500;2022-09-11T00:53:56;30.04;28.68;32.43;;
66463;Laerm;56827;52.178;4.500;2022-09-11T00:54:08;30.26;28.88;32.36;;
66463;Laerm;56827;52.178;4.500;2022-09-11T00:54:23;30.18;27.79;33.12;;
66463;Laerm;56827;52.178;4.500;2022-09-11T00:54:37;29.95;28.61;33.20;;
66463;Laerm;56827;52.178;4.500;2022-09-11T00:55:10;31.12;28.59;34.94;;
66463;Laerm;56827;52.178;4.500;2022-09-11T00:55:22;37.31;30.56;44.63;;
66463;Laerm;56827;52.178;4.500;2022-09-11T00:55:36;44.61;35.54;49.92;;
66463;Laerm;56827;52.178;4.500;2022-09-11T00:55:50;47.72;41.11;54.39;;
66463;Laerm;56827;52.178;4.500;2022-09-11T00:56:04;44.51;39.24;49.14;;
66463;Laerm;56827;52.178;4.500;2022-09-11T00:56:16;37.60;32.41;42.68;;
66463;Laerm;56827;52.178;4.500;2022-09-11T00:56:28;33.88;30.48;39.79;;
66463;Laerm;56827;52.178;4.500;2022-09-11T00:56:40;32.70;29.18;38.75;;
66463;Laerm;56827;52.178;4.500;2022-09-11T00:56:52;30.54;28.84;33.02;;
66463;Laerm;56827;52.178;4.500;2022-09-11T00:57:03;30.51;29.05;35.61;;
66463;Laerm;56827;52.178;4.500;2022-09-11T00:57:15;30.62;29.20;33.74;;
66463;Laerm;56827;52.178;4.500;2022-09-11T00:57:29;30.85;29.25;33.25;;
66463;Laerm;56827;52.178;4.500;2022-09-11T00:57:42;30.33;28.81;33.32;;
66463;Laerm;56827;52.178;4.500;2022-09-11T00:57:59;30.33;28.65;32.92;;
66463;Laerm;56827;52.178;4.500;2022-09-11T00:58:14;30.37;28.91;33.13;;
66463;Laerm;56827;52.178;4.500;2022-09-11T00:58:27;30.71;28.79;40.53;;
66463;Laerm;56827;52.178;4.500;2022-09-11T00:58:38;30.73;29.08;35.77;;
66463;Laerm;56827;52.178;4.500;2022-09-11T00:58:51;30.76;28.70;32.91;;
66463;Laerm;56827;52.178;4.500;2022-09-11T00:59:03;33.44;29.64;51.00;;
66463;Laerm;56827;52.178;4.500;2022-09-11T00:59:15;48.39;33.11;59.34;;
66463;Laerm;56827;52.178;4.500;2022-09-11T00:59:26;62.44;41.63;71.20;;
66463;Laerm;56827;52.178;4.500;2022-09-11T00:59:38;39.15;30.18;58.11;;
66463;Laerm;56827;52.178;4.500;2022-09-11T00:59:50;39.97;34.35;46.36;;
66463;Laerm;56827;52.178;4.500;2022-09-11T01:00:05;56.17;38.34;65.52;;
66463;Laerm;56827;52.178;4.500;2022-09-11T01:00:16;35.88;31.54;39.89;;
66463;Laerm;56827;52.178;4.500;2022-09-11T01:00:27;35.52;30.26;44.89;;
66463;Laerm;56827;52.178;4.500;2022-09-11T01:00:37;30.48;28.83;32.44;;
66463;Laerm;56827;52.178;4.500;2022-09-11T01:00:48;31.64;29.05;41.53;;
66463;Laerm;56827;52.178;4.500;2022-09-11T01:01:00;31.24;28.88;41.43;;
66463;Laerm;56827;52.178;4.500;2022-09-11T01:01:12;33.62;29.14;46.34;;
66463;Laerm;56827;52.178;4.500;2022-09-11T01:01:23;42.88;32.01;49.43;;
66463;Laerm;56827;52.178;4.500;2022-09-11T01:01:33;32.01;29.13;37.11;;
66463;Laerm;56827;52.178;4.500;2022-09-11T01:01:44;30.56;29.22;36.15;;
66463;Laerm;56827;52.178;4.500;2022-09-11T01:01:54;30.36;28.69;32.77;;
66463;Laerm;56827;52.178;4.500;2022-09-11T01:02:04;30.05;28.77;33.19;;
66463;Laerm;56827;52.178;4.500;2022-09-11T01:02:18;30.56;28.82;34.83;;
66463;Laerm;56827;52.178;4.500;2022-09-11T01:02:29;30.74;29.02;33.78;;
66463;Laerm;56827;52.178;4.500;2022-09-11T01:02:43;30.70;28.40;34.61;;
66463;Laerm;56827;52.178;4.500;2022-09-11T01:02:56;30.35;28.83;32.87;;
66463;Laerm;56827;52.178;4.500;2022-09-11T01:03:06;30.51;28.99;34.74;;
66463;Laerm;56827;52.178;4.500;2022-09-11T01:03:17;30.47;28.79;32.46;;
66463;Laerm;56827;52.178;4.500;2022-09-11T01:03:28;30.53;28.73;36.31;;
66463;Laerm;56827;52.178;4.500;2022-09-11T01:03:41;30.97;28.73;35.06;;
66463;Laerm;56827;52.178;4.500;2022-09-11T01:03:54;31.49;29.22;38.70;;
66463;Laerm;56827;52.178;4.500;2022-09-11T01:04:05;31.80;29.73;36.40;;
66463;Laerm;56827;52.178;4.500;2022-09-11T01:04:16;33.52;30.90;36.49;;
66463;Laerm;56827;52.178;4.500;2022-09-11T01:04:27;38.63;32.62;49.10;;
66463;Laerm;56827;52.178;4.500;2022-09-11T01:04:38;42.17;37.25;46.02;;
66463;Laerm;56827;52.178;4.500;2022-09-11T01:04:49;41.40;36.09;45.38;;
66463;Laerm;56827;52.178;4.500;2022-09-11T01:05:02;42.05;37.30;46.24;;
66463;Laerm;56827;52.178;4.500;2022-09-11T01:05:12;37.01;32.74;40.70;;
66463;Laerm;56827;52.178;4.500;2022-09-11T01:05:23;33.05;30.75;36.28;;
66463;Laerm;56827;52.178;4.500;2022-09-11T01:05:35;31.35;29.60;35.68;;
66463;Laerm;56827;52.178;4.500;2022-09-11T01:05:47;30.81;29.34;35.91;;
66463;Laerm;56827;52.178;4.500;2022-09-11T01:05:57;30.92;29.04;33.25;;
66463;Laerm;56827;52.178;4.500;2022-09-11T01:06:08;36.25;30.57;42.93;;
66463;Laerm;56827;52.178;4.500;2022-09-11T01:06:19;62.82;40.92;72.10;;
66463;Laerm;56827;52.178;4.500;2022-09-11T01:06:31;41.17;30.02;53.57;;